Terminal Aerodrome Forecast
Issued by NWS Buffalo, NY

Home | Current Version | Previous Version | Text Only | Print | Product List | Glossary On
Versions: 1 2 3 4 5 6 7 8 9 10 11 12 13 14 15 16 17 18 19 20 21 22 23 24 25 26 27
000
FTUS41 KBUF 021700
TAFBUF
TAF
KBUF 021733Z 0218/0318 21008KT P6SM FEW025 FEW200 FEW250
     FM022000 VRB03KT P6SM BKN060
     FM022300 00000KT P6SM SCT080
     FM030200 14006KT P6SM SCT250
     FM031200 16012KT P6SM BKN140=

USA.gov is the U.S. government's official web portal to all federal, state and local government web resources and services.